sensor_id;sensor_type;location;lat;lon;timestamp;P1;durP1;ratioP1;P2;durP2;ratioP2
71916;SDS011;59793;46.506;6.674;2023-05-27T00:00:16;11.55;;;7.25;;
71916;SDS011;59793;46.506;6.674;2023-05-27T00:02:55;10.48;;;6.10;;
71916;SDS011;59793;46.506;6.674;2023-05-27T00:06:03;12.40;;;7.40;;
71916;SDS011;59793;46.506;6.674;2023-05-27T00:08:29;9.45;;;6.63;;
71916;SDS011;59793;46.506;6.674;2023-05-27T00:10:54;12.33;;;6.47;;
71916;SDS011;59793;46.506;6.674;2023-05-27T00:13:20;14.57;;;7.47;;
71916;SDS011;59793;46.506;6.674;2023-05-27T00:20:50;10.95;;;6.15;;
71916;SDS011;59793;46.506;6.674;2023-05-27T00:23:17;16.60;;;7.40;;
71916;SDS011;59793;46.506;6.674;2023-05-27T00:25:43;15.68;;;7.43;;
71916;SDS011;59793;46.506;6.674;2023-05-27T00:28:12;9.93;;;6.90;;
71916;SDS011;59793;46.506;6.674;2023-05-27T00:30:39;11.00;;;7.90;;
71916;SDS011;59793;46.506;6.674;2023-05-27T00:33:07;11.60;;;6.95;;
71916;SDS011;59793;46.506;6.674;2023-05-27T00:35:34;10.65;;;6.55;;
71916;SDS011;59793;46.506;6.674;2023-05-27T00:38:04;11.18;;;6.47;;
71916;SDS011;59793;46.506;6.674;2023-05-27T00:40:30;10.55;;;6.43;;
71916;SDS011;59793;46.506;6.674;2023-05-27T00:42:59;10.07;;;6.97;;
71916;SDS011;59793;46.506;6.674;2023-05-27T00:45:24;11.93;;;7.40;;
71916;SDS011;59793;46.506;6.674;2023-05-27T00:50:17;11.48;;;6.50;;
71916;SDS011;59793;46.506;6.674;2023-05-27T00:52:43;11.50;;;7.10;;
71916;SDS011;59793;46.506;6.674;2023-05-27T00:55:10;13.13;;;7.60;;
71916;SDS011;59793;46.506;6.674;2023-05-27T00:57:37;9.00;;;6.53;;
71916;SDS011;59793;46.506;6.674;2023-05-27T01:05:31;12.40;;;6.75;;
71916;SDS011;59793;46.506;6.674;2023-05-27T01:08:15;11.10;;;7.23;;
71916;SDS011;59793;46.506;6.674;2023-05-27T01:11:04;12.73;;;6.37;;
71916;SDS011;59793;46.506;6.674;2023-05-27T01:16:11;10.82;;;7.53;;
71916;SDS011;59793;46.506;6.674;2023-05-27T01:18:42;11.88;;;7.15;;
71916;SDS011;59793;46.506;6.674;2023-05-27T01:21:10;13.60;;;7.57;;
71916;SDS011;59793;46.506;6.674;2023-05-27T01:23:42;12.80;;;7.40;;
71916;SDS011;59793;46.506;6.674;2023-05-27T01:26:09;8.48;;;5.75;;
71916;SDS011;59793;46.506;6.674;2023-05-27T01:28:35;11.63;;;7.20;;
71916;SDS011;59793;46.506;6.674;2023-05-27T01:31:23;10.05;;;6.97;;
71916;SDS011;59793;46.506;6.674;2023-05-27T01:34:01;14.13;;;7.70;;
71916;SDS011;59793;46.506;6.674;2023-05-27T01:36:33;11.23;;;6.90;;
71916;SDS011;59793;46.506;6.674;2023-05-27T01:39:24;12.45;;;7.10;;
71916;SDS011;59793;46.506;6.674;2023-05-27T01:41:51;14.02;;;7.40;;
71916;SDS011;59793;46.506;6.674;2023-05-27T01:44:18;17.98;;;9.68;;
71916;SDS011;59793;46.506;6.674;2023-05-27T01:46:44;13.52;;;8.10;;
71916;SDS011;59793;46.506;6.674;2023-05-27T01:49:12;13.63;;;8.27;;
71916;SDS011;59793;46.506;6.674;2023-05-27T01:51:38;13.57;;;8.38;;
71916;SDS011;59793;46.506;6.674;2023-05-27T01:54:03;19.97;;;7.90;;
71916;SDS011;59793;46.506;6.674;2023-05-27T01:56:30;10.93;;;7.63;;
71916;SDS011;59793;46.506;6.674;2023-05-27T01:58:56;14.48;;;7.93;;
71916;SDS011;59793;46.506;6.674;2023-05-27T02:01:23;12.68;;;8.30;;
71916;SDS011;59793;46.506;6.674;2023-05-27T02:03:48;9.97;;;7.33;;
71916;SDS011;59793;46.506;6.674;2023-05-27T02:16:35;10.13;;;6.30;;
71916;SDS011;59793;46.506;6.674;2023-05-27T02:19:01;14.52;;;7.13;;
71916;SDS011;59793;46.506;6.674;2023-05-27T02:21:27;15.45;;;8.00;;
71916;SDS011;59793;46.506;6.674;2023-05-27T02:23:55;8.15;;;6.72;;
71916;SDS011;59793;46.506;6.674;2023-05-27T02:26:20;9.87;;;7.20;;
71916;SDS011;59793;46.506;6.674;2023-05-27T02:28:46;17.65;;;7.88;;
71916;SDS011;59793;46.506;6.674;2023-05-27T02:31:16;10.80;;;6.55;;
71916;SDS011;59793;46.506;6.674;2023-05-27T02:33:42;13.63;;;7.77;;
71916;SDS011;59793;46.506;6.674;2023-05-27T02:36:09;13.00;;;7.15;;
71916;SDS011;59793;46.506;6.674;2023-05-27T02:49:48;12.80;;;7.68;;
71916;SDS011;59793;46.506;6.674;2023-05-27T03:02:28;9.73;;;6.80;;
71916;SDS011;59793;46.506;6.674;2023-05-27T03:04:54;11.50;;;7.33;;
71916;SDS011;59793;46.506;6.674;2023-05-27T03:07:20;15.15;;;7.50;;
71916;SDS011;59793;46.506;6.674;2023-05-27T03:09:46;11.20;;;7.00;;
71916;SDS011;59793;46.506;6.674;2023-05-27T03:12:12;8.43;;;6.75;;
71916;SDS011;59793;46.506;6.674;2023-05-27T03:14:43;10.20;;;7.03;;
71916;SDS011;59793;46.506;6.674;2023-05-27T03:17:37;13.25;;;7.45;;
71916;SDS011;59793;46.506;6.674;2023-05-27T03:20:07;13.25;;;6.40;;
71916;SDS011;59793;46.506;6.674;2023-05-27T03:22:54;14.10;;;7.45;;
71916;SDS011;59793;46.506;6.674;2023-05-27T03:25:30;14.25;;;7.32;;
71916;SDS011;59793;46.506;6.674;2023-05-27T03:28:00;10.95;;;7.07;;
71916;SDS011;59793;46.506;6.674;2023-05-27T03:30:45;9.60;;;7.05;;
71916;SDS011;59793;46.506;6.674;2023-05-27T03:33:14;10.32;;;6.95;;
71916;SDS011;59793;46.506;6.674;2023-05-27T03:35:42;10.18;;;7.28;;
71916;SDS011;59793;46.506;6.674;2023-05-27T03:38:31;11.85;;;7.38;;
71916;SDS011;59793;46.506;6.674;2023-05-27T03:40:56;10.63;;;7.27;;
71916;SDS011;59793;46.506;6.674;2023-05-27T03:43:22;12.18;;;7.80;;
71916;SDS011;59793;46.506;6.674;2023-05-27T03:45:47;9.57;;;7.33;;
71916;SDS011;59793;46.506;6.674;2023-05-27T03:48:13;12.33;;;7.90;;
71916;SDS011;59793;46.506;6.674;2023-05-27T03:50:39;11.30;;;8.15;;
71916;SDS011;59793;46.506;6.674;2023-05-27T03:53:05;10.43;;;7.13;;
71916;SDS011;59793;46.506;6.674;2023-05-27T03:55:31;14.23;;;7.60;;
71916;SDS011;59793;46.506;6.674;2023-05-27T03:57:57;12.93;;;7.00;;
71916;SDS011;59793;46.506;6.674;2023-05-27T04:00:23;11.63;;;8.00;;
71916;SDS011;59793;46.506;6.674;2023-05-27T04:02:50;11.20;;;7.07;;
71916;SDS011;59793;46.506;6.674;2023-05-27T04:05:15;13.33;;;8.83;;
71916;SDS011;59793;46.506;6.674;2023-05-27T04:07:44;13.48;;;8.25;;
71916;SDS011;59793;46.506;6.674;2023-05-27T04:17:42;14.07;;;8.65;;
71916;SDS011;59793;46.506;6.674;2023-05-27T04:20:08;12.90;;;8.53;;
71916;SDS011;59793;46.506;6.674;2023-05-27T04:22:38;11.77;;;7.85;;
71916;SDS011;59793;46.506;6.674;2023-05-27T04:25:05;12.85;;;8.38;;
71916;SDS011;59793;46.506;6.674;2023-05-27T04:27:31;12.93;;;8.32;;
71916;SDS011;59793;46.506;6.674;2023-05-27T04:40:32;11.70;;;8.05;;
71916;SDS011;59793;46.506;6.674;2023-05-27T04:45:26;15.75;;;7.38;;
71916;SDS011;59793;46.506;6.674;2023-05-27T04:47:54;10.90;;;7.65;;
71916;SDS011;59793;46.506;6.674;2023-05-27T04:50:23;11.85;;;7.35;;
71916;SDS011;59793;46.506;6.674;2023-05-27T04:52:52;14.07;;;7.47;;
71916;SDS011;59793;46.506;6.674;2023-05-27T05:00:45;10.73;;;7.35;;
71916;SDS011;59793;46.506;6.674;2023-05-27T05:03:19;14.02;;;7.88;;
71916;SDS011;59793;46.506;6.674;2023-05-27T05:05:50;13.20;;;8.50;;
71916;SDS011;59793;46.506;6.674;2023-05-27T05:08:21;10.18;;;7.50;;
71916;SDS011;59793;46.506;6.674;2023-05-27T05:10:47;14.23;;;8.43;;
71916;SDS011;59793;46.506;6.674;2023-05-27T05:43:19;12.18;;;6.70;;
71916;SDS011;59793;46.506;6.674;2023-05-27T05:45:47;11.27;;;7.05;;
71916;SDS011;59793;46.506;6.674;2023-05-27T05:48:13;11.23;;;7.97;;
71916;SDS011;59793;46.506;6.674;2023-05-27T05:50:38;12.63;;;8.03;;
71916;SDS011;59793;46.506;6.674;2023-05-27T05:53:03;15.73;;;7.53;;
71916;SDS011;59793;46.506;6.674;2023-05-27T05:55:30;12.23;;;6.83;;
71916;SDS011;59793;46.506;6.674;2023-05-27T05:58:33;10.02;;;6.60;;
71916;SDS011;59793;46.506;6.674;2023-05-27T06:01:11;8.63;;;6.82;;
71916;SDS011;59793;46.506;6.674;2023-05-27T06:03:37;12.20;;;7.10;;
71916;SDS011;59793;46.506;6.674;2023-05-27T06:06:03;10.73;;;8.65;;
71916;SDS011;59793;46.506;6.674;2023-05-27T06:08:30;12.43;;;8.17;;
71916;SDS011;59793;46.506;6.674;2023-05-27T06:11:04;13.77;;;8.45;;
71916;SDS011;59793;46.506;6.674;2023-05-27T06:13:30;12.23;;;8.90;;
71916;SDS011;59793;46.506;6.674;2023-05-27T06:16:00;15.73;;;9.55;;
71916;SDS011;59793;46.506;6.674;2023-05-27T06:24:07;13.38;;;9.98;;
71916;SDS011;59793;46.506;6.674;2023-05-27T06:26:32;17.57;;;9.43;;
71916;SDS011;59793;46.506;6.674;2023-05-27T06:28:58;15.73;;;10.15;;
71916;SDS011;59793;46.506;6.674;2023-05-27T06:31:25;11.77;;;9.43;;
71916;SDS011;59793;46.506;6.674;2023-05-27T06:47:38;19.50;;;9.35;;
71916;SDS011;59793;46.506;6.674;2023-05-27T06:50:04;15.45;;;10.05;;
71916;SDS011;59793;46.506;6.674;2023-05-27T06:52:30;15.82;;;9.82;;
71916;SDS011;59793;46.506;6.674;2023-05-27T06:54:59;17.47;;;10.47;;
71916;SDS011;59793;46.506;6.674;2023-05-27T06:57:29;12.48;;;9.43;;
71916;SDS011;59793;46.506;6.674;2023-05-27T06:59:55;16.13;;;9.55;;
71916;SDS011;59793;46.506;6.674;2023-05-27T07:42:57;18.20;;;10.68;;
71916;SDS011;59793;46.506;6.674;2023-05-27T07:45:28;14.25;;;10.10;;
71916;SDS011;59793;46.506;6.674;2023-05-27T07:55:53;19.33;;;10.25;;
71916;SDS011;59793;46.506;6.674;2023-05-27T07:58:21;16.73;;;10.80;;
71916;SDS011;59793;46.506;6.674;2023-05-27T08:00:51;13.73;;;9.52;;
71916;SDS011;59793;46.506;6.674;2023-05-27T08:13:31;14.05;;;8.88;;
71916;SDS011;59793;46.506;6.674;2023-05-27T08:15:56;15.57;;;9.97;;
71916;SDS011;59793;46.506;6.674;2023-05-27T08:18:40;14.32;;;9.88;;
71916;SDS011;59793;46.506;6.674;2023-05-27T08:21:08;12.77;;;9.73;;
71916;SDS011;59793;46.506;6.674;2023-05-27T08:23:33;14.07;;;9.97;;
71916;SDS011;59793;46.506;6.674;2023-05-27T08:28:27;16.17;;;9.77;;
71916;SDS011;59793;46.506;6.674;2023-05-27T08:30:52;19.43;;;11.50;;
71916;SDS011;59793;46.506;6.674;2023-05-27T08:33:18;16.83;;;9.83;;
71916;SDS011;59793;46.506;6.674;2023-05-27T08:35:43;17.67;;;10.47;;
71916;SDS011;59793;46.506;6.674;2023-05-27T08:38:11;16.50;;;10.90;;
71916;SDS011;59793;46.506;6.674;2023-05-27T08:40:48;12.93;;;9.88;;
71916;SDS011;59793;46.506;6.674;2023-05-27T08:43:14;19.20;;;9.43;;
71916;SDS011;59793;46.506;6.674;2023-05-27T08:45:41;13.52;;;9.45;;
71916;SDS011;59793;46.506;6.674;2023-05-27T08:48:14;13.05;;;10.00;;
71916;SDS011;59793;46.506;6.674;2023-05-27T08:50:43;17.02;;;9.77;;
71916;SDS011;59793;46.506;6.674;2023-05-27T08:53:10;14.35;;;10.43;;
71916;SDS011;59793;46.506;6.674;2023-05-27T08:55:37;15.40;;;10.40;;
71916;SDS011;59793;46.506;6.674;2023-05-27T08:58:06;17.30;;;9.35;;
71916;SDS011;59793;46.506;6.674;2023-05-27T09:00:32;14.77;;;10.40;;
71916;SDS011;59793;46.506;6.674;2023-05-27T09:02:59;10.33;;;8.77;;
71916;SDS011;59793;46.506;6.674;2023-05-27T09:05:25;15.27;;;10.27;;
71916;SDS011;59793;46.506;6.674;2023-05-27T09:07:52;14.27;;;9.63;;
71916;SDS011;59793;46.506;6.674;2023-05-27T09:10:18;19.98;;;10.02;;
71916;SDS011;59793;46.506;6.674;2023-05-27T09:12:47;13.38;;;9.88;;
71916;SDS011;59793;46.506;6.674;2023-05-27T09:15:23;16.13;;;10.43;;
71916;SDS011;59793;46.506;6.674;2023-05-27T09:18:01;15.05;;;9.50;;
71916;SDS011;59793;46.506;6.674;2023-05-27T09:20:28;16.42;;;9.88;;
71916;SDS011;59793;46.506;6.674;2023-05-27T09:22:58;14.00;;;9.65;;
71916;SDS011;59793;46.506;6.674;2023-05-27T09:25:43;18.98;;;10.90;;
71916;SDS011;59793;46.506;6.674;2023-05-27T09:28:09;14.52;;;9.93;;
71916;SDS011;59793;46.506;6.674;2023-05-27T09:30:35;14.40;;;9.15;;
71916;SDS011;59793;46.506;6.674;2023-05-27T09:33:01;13.85;;;9.55;;
71916;SDS011;59793;46.506;6.674;2023-05-27T09:35:36;14.82;;;9.30;;
71916;SDS011;59793;46.506;6.674;2023-05-27T09:38:06;16.42;;;10.82;;
71916;SDS011;59793;46.506;6.674;2023-05-27T09:40:35;15.82;;;9.95;;
71916;SDS011;59793;46.506;6.674;2023-05-27T09:43:02;13.82;;;9.20;;
71916;SDS011;59793;46.506;6.674;2023-05-27T09:45:28;12.40;;;9.23;;
71916;SDS011;59793;46.506;6.674;2023-05-27T09:47:55;15.07;;;8.10;;
71916;SDS011;59793;46.506;6.674;2023-05-27T09:50:24;12.30;;;8.65;;
71916;SDS011;59793;46.506;6.674;2023-05-27T09:52:55;14.68;;;8.85;;
71916;SDS011;59793;46.506;6.674;2023-05-27T09:55:23;16.73;;;9.30;;
71916;SDS011;59793;46.506;6.674;2023-05-27T09:57:49;15.50;;;9.23;;
71916;SDS011;59793;46.506;6.674;2023-05-27T10:00:16;14.20;;;8.55;;
71916;SDS011;59793;46.506;6.674;2023-05-27T10:02:46;15.45;;;8.70;;
71916;SDS011;59793;46.506;6.674;2023-05-27T10:05:15;11.25;;;8.20;;
71916;SDS011;59793;46.506;6.674;2023-05-27T10:07:42;14.02;;;9.13;;
71916;SDS011;59793;46.506;6.674;2023-05-27T10:10:15;16.10;;;9.63;;
71916;SDS011;59793;46.506;6.674;2023-05-27T10:12:43;15.77;;;9.27;;
71916;SDS011;59793;46.506;6.674;2023-05-27T10:15:26;15.23;;;9.02;;
71916;SDS011;59793;46.506;6.674;2023-05-27T10:17:59;11.35;;;7.82;;
71916;SDS011;59793;46.506;6.674;2023-05-27T10:23:15;11.77;;;7.95;;
71916;SDS011;59793;46.506;6.674;2023-05-27T10:31:08;15.90;;;7.38;;
71916;SDS011;59793;46.506;6.674;2023-05-27T10:33:38;11.00;;;7.28;;
71916;SDS011;59793;46.506;6.674;2023-05-27T10:36:26;18.77;;;8.77;;
71916;SDS011;59793;46.506;6.674;2023-05-27T10:41:39;15.68;;;10.95;;
71916;SDS011;59793;46.506;6.674;2023-05-27T10:47:12;11.80;;;7.88;;
71916;SDS011;59793;46.506;6.674;2023-05-27T10:49:46;13.70;;;6.93;;
71916;SDS011;59793;46.506;6.674;2023-05-27T10:52:17;10.82;;;6.10;;
71916;SDS011;59793;46.506;6.674;2023-05-27T10:54:44;11.18;;;6.68;;
71916;SDS011;59793;46.506;6.674;2023-05-27T10:57:11;14.35;;;6.75;;
71916;SDS011;59793;46.506;6.674;2023-05-27T10:59:51;9.27;;;5.68;;
71916;SDS011;59793;46.506;6.674;2023-05-27T11:02:18;12.50;;;7.93;;
71916;SDS011;59793;46.506;6.674;2023-05-27T11:04:46;17.65;;;8.40;;
71916;SDS011;59793;46.506;6.674;2023-05-27T11:07:17;13.75;;;8.23;;
71916;SDS011;59793;46.506;6.674;2023-05-27T11:09:44;16.52;;;8.07;;
71916;SDS011;59793;46.506;6.674;2023-05-27T11:12:19;12.50;;;8.40;;
71916;SDS011;59793;46.506;6.674;2023-05-27T11:14:51;13.57;;;8.75;;
71916;SDS011;59793;46.506;6.674;2023-05-27T11:17:35;17.58;;;10.43;;
71916;SDS011;59793;46.506;6.674;2023-05-27T11:20:03;15.23;;;9.73;;
71916;SDS011;59793;46.506;6.674;2023-05-27T11:22:31;12.05;;;8.90;;
71916;SDS011;59793;46.506;6.674;2023-05-27T11:24:59;13.70;;;10.00;;
71916;SDS011;59793;46.506;6.674;2023-05-27T11:27:38;15.02;;;9.57;;
71916;SDS011;59793;46.506;6.674;2023-05-27T11:30:10;14.38;;;10.27;;
71916;SDS011;59793;46.506;6.674;2023-05-27T11:32:41;14.73;;;10.07;;
71916;SDS011;59793;46.506;6.674;2023-05-27T11:35:17;13.48;;;9.07;;
71916;SDS011;59793;46.506;6.674;2023-05-27T11:37:52;22.02;;;10.48;;
71916;SDS011;59793;46.506;6.674;2023-05-27T11:40:18;17.00;;;10.45;;
71916;SDS011;59793;46.506;6.674;2023-05-27T11:43:04;14.40;;;8.73;;
71916;SDS011;59793;46.506;6.674;2023-05-27T11:45:35;13.38;;;9.00;;
71916;SDS011;59793;46.506;6.674;2023-05-27T11:48:03;13.68;;;9.77;;
71916;SDS011;59793;46.506;6.674;2023-05-27T11:50:29;13.38;;;8.60;;
71916;SDS011;59793;46.506;6.674;2023-05-27T11:52:55;16.40;;;9.77;;
71916;SDS011;59793;46.506;6.674;2023-05-27T11:55:23;18.20;;;11.18;;
71916;SDS011;59793;46.506;6.674;2023-05-27T11:57:49;15.20;;;9.63;;
71916;SDS011;59793;46.506;6.674;2023-05-27T12:00:15;12.05;;;7.65;;
71916;SDS011;59793;46.506;6.674;2023-05-27T12:02:43;15.60;;;9.20;;
71916;SDS011;59793;46.506;6.674;2023-05-27T12:05:11;12.65;;;9.15;;
71916;SDS011;59793;46.506;6.674;2023-05-27T12:07:37;9.03;;;7.40;;
71916;SDS011;59793;46.506;6.674;2023-05-27T12:10:09;14.85;;;8.45;;
71916;SDS011;59793;46.506;6.674;2023-05-27T12:12:34;12.87;;;8.13;;
71916;SDS011;59793;46.506;6.674;2023-05-27T12:15:04;14.35;;;7.85;;
71916;SDS011;59793;46.506;6.674;2023-05-27T12:17:31;13.93;;;8.23;;
71916;SDS011;59793;46.506;6.674;2023-05-27T12:19:56;16.10;;;9.50;;
71916;SDS011;59793;46.506;6.674;2023-05-27T12:22:22;12.13;;;8.57;;
71916;SDS011;59793;46.506;6.674;2023-05-27T12:24:48;17.00;;;8.75;;
71916;SDS011;59793;46.506;6.674;2023-05-27T12:27:17;9.82;;;7.75;;
71916;SDS011;59793;46.506;6.674;2023-05-27T12:29:44;13.15;;;7.80;;
71916;SDS011;59793;46.506;6.674;2023-05-27T12:32:11;16.50;;;7.88;;
71916;SDS011;59793;46.506;6.674;2023-05-27T12:34:37;13.52;;;8.25;;
71916;SDS011;59793;46.506;6.674;2023-05-27T12:37:03;13.93;;;8.02;;
71916;SDS011;59793;46.506;6.674;2023-05-27T12:39:28;12.85;;;7.72;;
71916;SDS011;59793;46.506;6.674;2023-05-27T12:41:54;14.80;;;7.57;;
71916;SDS011;59793;46.506;6.674;2023-05-27T12:44:19;10.37;;;7.57;;
71916;SDS011;59793;46.506;6.674;2023-05-27T12:46:44;18.67;;;9.10;;
71916;SDS011;59793;46.506;6.674;2023-05-27T12:49:10;12.80;;;6.87;;
71916;SDS011;59793;46.506;6.674;2023-05-27T12:51:37;11.87;;;7.57;;
71916;SDS011;59793;46.506;6.674;2023-05-27T12:54:03;13.00;;;7.65;;
71916;SDS011;59793;46.506;6.674;2023-05-27T12:56:28;12.00;;;7.80;;
71916;SDS011;59793;46.506;6.674;2023-05-27T12:58:55;14.88;;;7.70;;
71916;SDS011;59793;46.506;6.674;2023-05-27T13:01:21;10.30;;;8.18;;
71916;SDS011;59793;46.506;6.674;2023-05-27T13:03:47;9.85;;;6.78;;
71916;SDS011;59793;46.506;6.674;2023-05-27T13:06:12;10.27;;;7.10;;
71916;SDS011;59793;46.506;6.674;2023-05-27T13:08:38;17.40;;;7.57;;
71916;SDS011;59793;46.506;6.674;2023-05-27T13:11:03;14.20;;;8.17;;
71916;SDS011;59793;46.506;6.674;2023-05-27T13:13:28;12.88;;;8.55;;
71916;SDS011;59793;46.506;6.674;2023-05-27T13:15:59;11.93;;;7.20;;
71916;SDS011;59793;46.506;6.674;2023-05-27T13:18:34;14.75;;;7.75;;
71916;SDS011;59793;46.506;6.674;2023-05-27T13:23:26;14.00;;;6.78;;
71916;SDS011;59793;46.506;6.674;2023-05-27T13:25:54;16.08;;;8.05;;
71916;SDS011;59793;46.506;6.674;2023-05-27T13:28:19;11.05;;;6.65;;
71916;SDS011;59793;46.506;6.674;2023-05-27T13:30:45;12.37;;;7.13;;
71916;SDS011;59793;46.506;6.674;2023-05-27T13:33:10;9.60;;;6.43;;
71916;SDS011;59793;46.506;6.674;2023-05-27T13:35:36;11.15;;;7.93;;
71916;SDS011;59793;46.506;6.674;2023-05-27T13:40:35;12.77;;;6.93;;
71916;SDS011;59793;46.506;6.674;2023-05-27T13:43:01;13.55;;;7.47;;
71916;SDS011;59793;46.506;6.674;2023-05-27T13:45:27;9.17;;;6.07;;
71916;SDS011;59793;46.506;6.674;2023-05-27T13:47:52;11.63;;;6.83;;
71916;SDS011;59793;46.506;6.674;2023-05-27T13:50:18;9.82;;;5.88;;
71916;SDS011;59793;46.506;6.674;2023-05-27T13:52:44;9.68;;;6.20;;
71916;SDS011;59793;46.506;6.674;2023-05-27T13:55:12;11.57;;;7.20;;
71916;SDS011;59793;46.506;6.674;2023-05-27T13:57:37;10.55;;;7.43;;
71916;SDS011;59793;46.506;6.674;2023-05-27T14:00:03;11.50;;;6.20;;
71916;SDS011;59793;46.506;6.674;2023-05-27T14:02:31;10.70;;;6.35;;
71916;SDS011;59793;46.506;6.674;2023-05-27T14:04:56;12.23;;;5.70;;
71916;SDS011;59793;46.506;6.674;2023-05-27T14:07:22;10.23;;;6.73;;
71916;SDS011;59793;46.506;6.674;2023-05-27T14:09:48;10.98;;;6.80;;
71916;SDS011;59793;46.506;6.674;2023-05-27T14:12:14;8.20;;;6.10;;
71916;SDS011;59793;46.506;6.674;2023-05-27T14:14:40;14.02;;;8.32;;
71916;SDS011;59793;46.506;6.674;2023-05-27T14:17:06;13.27;;;6.72;;
71916;SDS011;59793;46.506;6.674;2023-05-27T14:19:33;11.48;;;7.05;;
71916;SDS011;59793;46.506;6.674;2023-05-27T14:21:59;11.65;;;7.40;;
71916;SDS011;59793;46.506;6.674;2023-05-27T14:24:32;14.77;;;7.47;;
71916;SDS011;59793;46.506;6.674;2023-05-27T14:26:59;11.00;;;7.00;;
71916;SDS011;59793;46.506;6.674;2023-05-27T14:29:29;12.07;;;8.27;;
71916;SDS011;59793;46.506;6.674;2023-05-27T14:31:55;9.03;;;6.50;;
71916;SDS011;59793;46.506;6.674;2023-05-27T14:34:20;8.87;;;6.63;;
71916;SDS011;59793;46.506;6.674;2023-05-27T14:36:45;13.13;;;6.87;;
71916;SDS011;59793;46.506;6.674;2023-05-27T14:39:11;13.80;;;6.27;;
71916;SDS011;59793;46.506;6.674;2023-05-27T14:41:36;10.47;;;6.67;;
71916;SDS011;59793;46.506;6.674;2023-05-27T14:44:02;10.65;;;6.20;;
71916;SDS011;59793;46.506;6.674;2023-05-27T14:46:28;9.27;;;6.03;;
71916;SDS011;59793;46.506;6.674;2023-05-27T14:48:53;9.70;;;5.77;;
71916;SDS011;59793;46.506;6.674;2023-05-27T14:51:18;10.83;;;7.07;;
71916;SDS011;59793;46.506;6.674;2023-05-27T14:53:44;13.27;;;6.03;;
71916;SDS011;59793;46.506;6.674;2023-05-27T14:56:09;13.93;;;5.83;;
71916;SDS011;59793;46.506;6.674;2023-05-27T14:58:35;12.17;;;7.10;;
71916;SDS011;59793;46.506;6.674;2023-05-27T15:01:00;17.70;;;5.77;;
71916;SDS011;59793;46.506;6.674;2023-05-27T15:03:25;12.50;;;6.73;;
71916;SDS011;59793;46.506;6.674;2023-05-27T15:05:51;10.60;;;6.37;;
71916;SDS011;59793;46.506;6.674;2023-05-27T15:08:17;13.00;;;6.47;;
71916;SDS011;59793;46.506;6.674;2023-05-27T15:10:43;11.18;;;5.65;;
71916;SDS011;59793;46.506;6.674;2023-05-27T15:13:09;12.07;;;6.03;;
71916;SDS011;59793;46.506;6.674;2023-05-27T15:15:36;13.38;;;6.50;;
71916;SDS011;59793;46.506;6.674;2023-05-27T15:18:04;12.27;;;5.88;;
71916;SDS011;59793;46.506;6.674;2023-05-27T15:20:30;10.23;;;5.90;;
71916;SDS011;59793;46.506;6.674;2023-05-27T15:22:56;11.13;;;5.90;;
71916;SDS011;59793;46.506;6.674;2023-05-27T15:25:22;10.35;;;5.05;;
71916;SDS011;59793;46.506;6.674;2023-05-27T15:27:48;10.70;;;5.97;;
71916;SDS011;59793;46.506;6.674;2023-05-27T15:30:14;12.02;;;6.10;;
71916;SDS011;59793;46.506;6.674;2023-05-27T15:32:40;12.98;;;6.32;;
71916;SDS011;59793;46.506;6.674;2023-05-27T15:35:07;12.05;;;6.20;;
71916;SDS011;59793;46.506;6.674;2023-05-27T15:37:33;11.90;;;6.45;;
71916;SDS011;59793;46.506;6.674;2023-05-27T15:42:25;8.70;;;5.97;;
71916;SDS011;59793;46.506;6.674;2023-05-27T15:44:52;15.07;;;6.82;;
71916;SDS011;59793;46.506;6.674;2023-05-27T15:47:18;11.02;;;5.95;;
71916;SDS011;59793;46.506;6.674;2023-05-27T15:49:43;13.03;;;5.40;;
71916;SDS011;59793;46.506;6.674;2023-05-27T15:52:09;9.70;;;5.70;;
71916;SDS011;59793;46.506;6.674;2023-05-27T15:54:38;13.00;;;6.60;;
71916;SDS011;59793;46.506;6.674;2023-05-27T15:57:05;8.95;;;5.95;;
71916;SDS011;59793;46.506;6.674;2023-05-27T15:59:33;11.23;;;5.70;;
71916;SDS011;59793;46.506;6.674;2023-05-27T16:02:01;8.98;;;5.82;;
71916;SDS011;59793;46.506;6.674;2023-05-27T16:04:27;14.70;;;5.68;;
71916;SDS011;59793;46.506;6.674;2023-05-27T16:06:52;8.07;;;5.80;;
71916;SDS011;59793;46.506;6.674;2023-05-27T16:09:17;9.93;;;5.80;;
71916;SDS011;59793;46.506;6.674;2023-05-27T16:11:43;11.30;;;5.20;;
71916;SDS011;59793;46.506;6.674;2023-05-27T16:14:08;10.07;;;5.40;;
71916;SDS011;59793;46.506;6.674;2023-05-27T16:16:35;10.50;;;4.60;;
71916;SDS011;59793;46.506;6.674;2023-05-27T16:19:02;10.32;;;5.28;;
71916;SDS011;59793;46.506;6.674;2023-05-27T16:21:27;7.30;;;4.80;;
71916;SDS011;59793;46.506;6.674;2023-05-27T16:24:02;9.80;;;5.15;;
71916;SDS011;59793;46.506;6.674;2023-05-27T16:26:31;10.98;;;4.90;;
71916;SDS011;59793;46.506;6.674;2023-05-27T16:28:56;14.10;;;5.70;;
71916;SDS011;59793;46.506;6.674;2023-05-27T16:31:21;9.80;;;6.17;;
71916;SDS011;59793;46.506;6.674;2023-05-27T16:33:48;9.43;;;5.80;;
71916;SDS011;59793;46.506;6.674;2023-05-27T16:36:14;10.23;;;5.97;;
71916;SDS011;59793;46.506;6.674;2023-05-27T16:38:39;9.43;;;5.80;;
71916;SDS011;59793;46.506;6.674;2023-05-27T16:41:09;7.70;;;5.00;;
71916;SDS011;59793;46.506;6.674;2023-05-27T16:43:35;12.80;;;5.90;;
71916;SDS011;59793;46.506;6.674;2023-05-27T16:46:01;13.07;;;6.07;;
71916;SDS011;59793;46.506;6.674;2023-05-27T16:48:27;10.15;;;6.55;;
71916;SDS011;59793;46.506;6.674;2023-05-27T16:50:52;17.77;;;7.67;;
71916;SDS011;59793;46.506;6.674;2023-05-27T16:53:18;16.27;;;7.63;;
71916;SDS011;59793;46.506;6.674;2023-05-27T16:55:43;11.80;;;6.67;;
71916;SDS011;59793;46.506;6.674;2023-05-27T16:58:08;8.90;;;6.17;;
71916;SDS011;59793;46.506;6.674;2023-05-27T17:00:34;10.90;;;6.97;;
71916;SDS011;59793;46.506;6.674;2023-05-27T17:02:59;14.30;;;6.17;;
71916;SDS011;59793;46.506;6.674;2023-05-27T17:05:25;8.40;;;5.57;;
71916;SDS011;59793;46.506;6.674;2023-05-27T17:07:50;14.10;;;6.20;;
71916;SDS011;59793;46.506;6.674;2023-05-27T17:10:16;12.77;;;5.97;;
71916;SDS011;59793;46.506;6.674;2023-05-27T17:12:43;12.93;;;6.32;;
71916;SDS011;59793;46.506;6.674;2023-05-27T17:15:10;11.60;;;5.22;;
71916;SDS011;59793;46.506;6.674;2023-05-27T17:17:37;8.85;;;5.47;;
71916;SDS011;59793;46.506;6.674;2023-05-27T17:20:02;8.10;;;5.70;;
71916;SDS011;59793;46.506;6.674;2023-05-27T17:22:41;8.15;;;5.07;;
71916;SDS011;59793;46.506;6.674;2023-05-27T17:25:08;13.07;;;6.87;;
71916;SDS011;59793;46.506;6.674;2023-05-27T17:27:33;8.02;;;5.28;;
71916;SDS011;59793;46.506;6.674;2023-05-27T17:29:59;8.47;;;5.87;;
71916;SDS011;59793;46.506;6.674;2023-05-27T17:35:09;11.25;;;5.90;;
71916;SDS011;59793;46.506;6.674;2023-05-27T17:37:35;10.47;;;5.47;;
71916;SDS011;59793;46.506;6.674;2023-05-27T17:40:00;14.23;;;6.17;;
71916;SDS011;59793;46.506;6.674;2023-05-27T17:42:27;7.97;;;5.23;;
71916;SDS011;59793;46.506;6.674;2023-05-27T17:44:52;10.00;;;5.00;;
71916;SDS011;59793;46.506;6.674;2023-05-27T17:47:18;11.57;;;6.37;;
71916;SDS011;59793;46.506;6.674;2023-05-27T17:49:43;13.97;;;5.77;;
71916;SDS011;59793;46.506;6.674;2023-05-27T17:52:09;6.77;;;5.30;;
71916;SDS011;59793;46.506;6.674;2023-05-27T17:54:34;9.67;;;5.33;;
71916;SDS011;59793;46.506;6.674;2023-05-27T17:57:00;11.10;;;5.93;;
71916;SDS011;59793;46.506;6.674;2023-05-27T17:59:25;13.52;;;5.85;;
71916;SDS011;59793;46.506;6.674;2023-05-27T18:01:51;8.03;;;6.23;;
71916;SDS011;59793;46.506;6.674;2023-05-27T18:04:16;9.03;;;5.80;;
71916;SDS011;59793;46.506;6.674;2023-05-27T18:09:08;7.43;;;4.85;;
71916;SDS011;59793;46.506;6.674;2023-05-27T18:11:35;12.05;;;5.75;;